Time;durP1;ratioP1;P1;durP2;ratioP2;P2;SDS_P1;SDS_P2;PMS_P1;PMS_P2;Temp;Humidity;BMP_temperature;BMP_pressure;BME280_temperature;BME280_humidity;BME280_pressure;Samples;Min_cycle;Max_cycle;Signal;HPM_P1;HPM_P2
2023/05/01 00:00:14;;;;;;;14.37;7.20;;;;;;;5.37;100.00;101108.97;4984425;28;20121;-76
2023/05/01 00:02:44;;;;;;;17.48;8.02;;;;;;;5.36;100.00;101086.97;4991097;28;20458;-75
2023/05/01 00:05:10;;;;;;;19.57;7.37;;;;;;;5.35;100.00;101064.06;4993019;28;20325;-75
2023/05/01 00:07:35;;;;;;;16.38;9.18;;;;;;;5.34;100.00;101070.34;4989703;28;20069;-75
2023/05/01 00:10:01;;;;;;;19.15;7.90;;;;;;;5.32;100.00;101068.78;4967204;28;20495;-74
2023/05/01 00:12:26;;;;;;;12.47;6.93;;;;;;;5.30;100.00;101068.91;4993825;28;20033;-75
2023/05/01 00:14:54;;;;;;;14.27;7.10;;;;;;;5.33;100.00;101075.75;4993617;28;20027;-74
2023/05/01 00:17:21;;;;;;;16.92;8.35;;;;;;;5.32;100.00;101052.91;4994183;28;20037;-74
2023/05/01 00:19:53;;;;;;;14.50;7.32;;;;;;;5.28;100.00;101036.41;4980509;28;20094;-75
2023/05/01 00:22:18;;;;;;;15.05;7.88;;;;;;;5.31;100.00;101038.78;4993245;28;20450;-76
2023/05/01 00:24:44;;;;;;;17.17;7.23;;;;;;;5.29;100.00;101027.47;4980800;28;20500;-75
2023/05/01 00:27:09;;;;;;;15.55;7.57;;;;;;;5.38;100.00;101028.56;4994583;28;20176;-74
2023/05/01 00:29:35;;;;;;;20.02;8.23;;;;;;;5.35;100.00;100975.88;4995513;28;20041;-75
2023/05/01 00:32:01;;;;;;;15.20;7.67;;;;;;;5.29;100.00;100978.06;4986446;28;20141;-73
2023/05/01 00:34:26;;;;;;;15.73;7.70;;;;;;;5.18;100.00;100956.03;4994232;28;20030;-75
2023/05/01 00:36:51;;;;;;;18.00;8.10;;;;;;;5.07;100.00;100968.31;4980522;28;20029;-75
2023/05/01 00:39:17;;;;;;;17.10;8.20;;;;;;;5.02;100.00;100972.28;4988550;28;20030;-74
2023/05/01 00:41:42;;;;;;;15.17;7.27;;;;;;;4.95;100.00;100985.16;4993829;28;20485;-75
2023/05/01 00:44:07;;;;;;;15.13;7.23;;;;;;;4.93;100.00;101010.88;4991203;28;20509;-74
2023/05/01 00:46:33;;;;;;;14.57;6.90;;;;;;;4.92;100.00;101009.22;4973289;28;20072;-74
2023/05/01 00:49:00;;;;;;;13.93;7.32;;;;;;;4.92;100.00;100971.34;4965519;28;20035;-75
2023/05/01 00:51:27;;;;;;;;;;;;;;;4.92;100.00;100974.81;4976365;28;20049;-74
2023/05/01 00:53:54;;;;;;;13.80;7.07;;;;;;;4.90;100.00;100966.16;4987045;28;20512;-76
2023/05/01 00:56:20;;;;;;;13.82;6.57;;;;;;;4.84;100.00;100959.53;4993451;28;20031;-75
2023/05/01 00:58:49;;;;;;;15.40;7.40;;;;;;;4.84;100.00;100951.59;4981360;28;20117;-75
2023/05/01 01:01:15;;;;;;;14.45;7.00;;;;;;;4.83;100.00;100925.28;5002811;28;20030;-74
2023/05/01 01:03:40;;;;;;;15.18;7.82;;;;;;;4.81;100.00;100900.75;4994747;28;20029;-75
2023/05/01 01:06:18;;;;;;;11.20;6.50;;;;;;;4.88;100.00;100923.09;4971102;28;20390;-75
2023/05/01 01:09:17;;;;;;;18.35;7.60;;;;;;;4.83;100.00;100881.13;4992559;28;20030;-75
2023/05/01 01:12:05;;;;;;;13.25;6.25;;;;;;;4.73;100.00;100871.41;4973882;28;20431;-76
2023/05/01 01:14:54;;;;;;;15.25;7.15;;;;;;;4.68;100.00;100873.56;4976769;28;20217;-75
2023/05/01 01:17:31;;;;;;;17.73;7.35;;;;;;;4.66;100.00;100873.72;4998989;28;20033;-75
2023/05/01 01:20:23;;;;;;;22.80;7.97;;;;;;;4.68;100.00;100868.28;5003142;28;20044;-75
2023/05/01 01:23:12;;;;;;;15.23;7.72;;;;;;;4.65;100.00;100869.38;4978050;28;20093;-75
2023/05/01 01:26:12;;;;;;;12.98;6.10;;;;;;;4.62;100.00;100854.59;4993485;28;20033;-74
2023/05/01 01:29:11;;;;;;;13.52;6.25;;;;;;;4.54;100.00;100859.66;5010326;22;20069;-70
2023/05/01 01:32:08;;;;;;;12.52;6.38;;;;;;;4.45;100.00;100884.16;5002265;28;20077;-70
2023/05/01 01:34:38;;;;;;;13.20;6.40;;;;;;;4.39;100.00;100889.94;5002058;28;20088;-69
2023/05/01 01:37:16;;;;;;;15.23;6.90;;;;;;;4.37;100.00;100884.75;5002957;28;20030;-70
2023/05/01 01:40:04;;;;;;;14.90;7.00;;;;;;;4.31;100.00;100887.03;4983488;28;20034;-70
2023/05/01 01:42:39;;;;;;;11.98;6.93;;;;;;;4.17;100.00;100902.16;5001327;28;20133;-70
2023/05/01 01:45:11;;;;;;;13.50;6.20;;;;;;;3.97;100.00;100908.94;5002618;28;20034;-70
2023/05/01 01:47:40;;;;;;;11.88;6.90;;;;;;;3.88;100.00;100946.59;4986703;28;20038;-70
2023/05/01 01:50:09;;;;;;;15.13;6.78;;;;;;;3.80;100.00;100981.53;4986346;28;20238;-70
2023/05/01 01:52:37;;;;;;;14.90;7.15;;;;;;;3.68;100.00;101003.56;4986804;28;20372;-70
2023/05/01 01:55:09;;;;;;;12.98;7.20;;;;;;;3.61;100.00;101041.09;4990478;28;20045;-70
2023/05/01 01:57:41;;;;;;;17.70;6.70;;;;;;;3.53;100.00;101071.50;5002790;28;20038;-71
2023/05/01 02:00:09;;;;;;;16.25;6.03;;;;;;;3.49;100.00;101101.72;4988553;28;20486;-70
2023/05/01 02:02:39;;;;;;;14.45;6.25;;;;;;;3.42;100.00;101099.59;4988005;28;20610;-70
2023/05/01 02:05:06;;;;;;;11.40;5.53;;;;;;;3.46;100.00;101124.84;4990433;28;20538;-70
2023/05/01 02:07:36;;;;;;;17.08;7.00;;;;;;;3.36;100.00;101143.94;4986522;28;20435;-70
2023/05/01 02:10:04;;;;;;;12.95;6.00;;;;;;;3.35;100.00;101152.84;4986215;28;20624;-70
2023/05/01 02:12:31;;;;;;;15.32;6.50;;;;;;;3.30;100.00;101133.84;4989036;28;20023;-70
2023/05/01 02:15:01;;;;;;;12.38;7.40;;;;;;;3.27;100.00;101130.56;4985675;28;20034;-71
2023/05/01 02:17:28;;;;;;;26.02;7.03;;;;;;;3.26;100.00;101134.16;5002498;28;20037;-70
2023/05/01 02:19:55;;;;;;;9.95;5.82;;;;;;;3.23;100.00;101131.72;4991328;28;20529;-70
2023/05/01 02:22:24;;;;;;;17.60;7.32;;;;;;;3.20;100.00;101140.69;5002458;28;20041;-70
2023/05/01 02:24:52;;;;;;;14.40;6.15;;;;;;;3.14;100.00;101123.50;4995135;28;20014;-71
2023/05/01 02:27:31;;;;;;;15.35;6.07;;;;;;;3.19;100.00;101130.25;5002599;28;20072;-70
2023/05/01 02:29:56;;;;;;;12.75;6.05;;;;;;;3.11;100.00;101122.84;5000681;28;20034;-71
2023/05/01 02:32:22;;;;;;;14.00;6.00;;;;;;;3.20;100.00;101153.88;5002297;28;20037;-71
2023/05/01 02:34:48;;;;;;;;;;;;;;;3.31;100.00;101167.19;4992696;28;20301;-70
2023/05/01 02:37:14;;;;;;;12.35;6.45;;;;;;;3.35;100.00;101152.00;5002307;28;20373;-70
2023/05/01 02:39:41;;;;;;;18.85;6.53;;;;;;;3.36;100.00;101138.69;5002050;28;20096;-70
2023/05/01 02:42:11;;;;;;;12.50;5.97;;;;;;;3.36;100.00;101128.13;5002169;28;20490;-70
2023/05/01 02:44:45;;;;;;;13.35;6.47;;;;;;;3.43;100.00;101138.25;5002011;28;20045;-71
2023/05/01 02:47:17;;;;;;;11.73;6.00;;;;;;;3.53;100.00;101139.28;4999992;28;20034;-71
2023/05/01 02:49:43;;;;;;;14.07;5.80;;;;;;;3.51;100.00;101101.59;5001994;28;20121;-70
2023/05/01 02:52:11;;;;;;;24.33;7.75;;;;;;;3.51;100.00;101072.56;4985744;28;20030;-71
2023/05/01 02:54:37;;;;;;;10.93;5.80;;;;;;;3.51;100.00;101051.44;4985609;28;20483;-70
2023/05/01 02:57:04;;;;;;;11.70;5.80;;;;;;;3.55;100.00;101034.44;4988527;28;20030;-70
2023/05/01 02:59:31;;;;;;;16.17;6.50;;;;;;;3.51;100.00;101028.53;4987361;28;20038;-70
2023/05/01 03:01:56;;;;;;;12.90;6.22;;;;;;;3.46;100.00;101024.53;5001632;28;20034;-70
2023/05/01 03:04:22;;;;;;;15.98;6.28;;;;;;;3.37;100.00;101021.59;5001401;28;20023;-70
2023/05/01 03:06:47;;;;;;;12.63;6.90;;;;;;;3.35;100.00;101043.78;5001600;28;20219;-70
2023/05/01 03:09:12;;;;;;;14.20;6.30;;;;;;;3.37;100.00;101063.84;5001312;28;20034;-69
2023/05/01 03:11:38;;;;;;;16.20;6.13;;;;;;;3.35;100.00;101071.00;4985165;28;20055;-70
2023/05/01 03:14:03;;;;;;;10.73;6.37;;;;;;;3.37;100.00;101084.94;4984408;28;20297;-70
2023/05/01 03:16:28;;;;;;;16.70;7.10;;;;;;;3.35;100.00;101096.56;4986375;28;20301;-70
2023/05/01 03:18:54;;;;;;;12.97;5.83;;;;;;;3.36;100.00;101080.59;4991696;28;20038;-70
2023/05/01 03:21:20;;;;;;;15.52;5.63;;;;;;;3.34;100.00;101077.22;5000598;28;20034;-70
2023/05/01 03:23:46;;;;;;;13.05;6.25;;;;;;;3.39;100.00;101074.25;4991540;28;20126;-71
2023/05/01 03:26:11;;;;;;;10.60;5.60;;;;;;;3.42;100.00;101057.38;5001643;28;20038;-70
2023/05/01 03:28:37;;;;;;;10.98;6.75;;;;;;;3.50;100.00;101049.75;4984942;28;20026;-70
2023/05/01 03:31:03;;;;;;;18.60;5.70;;;;;;;3.51;100.00;101025.91;4985035;28;20121;-70
2023/05/01 03:33:30;;;;;;;14.55;5.55;;;;;;;3.61;100.00;101009.41;4999468;28;20161;-70
2023/05/01 03:36:02;;;;;;;9.27;5.63;;;;;;;3.63;100.00;100981.94;4986277;28;20030;-71
2023/05/01 03:38:30;;;;;;;12.25;5.20;;;;;;;3.58;100.00;100955.88;4984557;28;20507;-72
2023/05/01 03:41:07;;;;;;;16.58;5.20;;;;;;;3.56;100.00;100941.94;4986965;28;20030;-71
2023/05/01 03:43:51;;;;;;;8.93;5.90;;;;;;;3.57;100.00;100935.69;4996512;28;20045;-71
2023/05/01 03:46:29;;;;;;;11.45;5.07;;;;;;;3.52;100.00;100931.69;4999211;28;20034;-70
2023/05/01 03:48:55;;;;;;;8.57;4.70;;;;;;;3.48;100.00;100924.97;4990002;28;20045;-70
2023/05/01 03:51:21;;;;;;;9.95;5.03;;;;;;;3.54;100.00;100946.47;5000808;28;20487;-70
2023/05/01 03:53:51;;;;;;;12.15;5.22;;;;;;;3.61;100.00;100952.16;4990852;28;20061;-70
2023/05/01 03:56:16;;;;;;;11.32;5.82;;;;;;;3.65;100.00;100937.75;5000580;28;20038;-70
2023/05/01 03:58:42;;;;;;;17.13;5.65;;;;;;;3.66;100.00;100928.88;4999897;28;20036;-70
2023/05/01 04:01:08;;;;;;;9.65;5.00;;;;;;;3.69;100.00;100923.38;5000439;28;20034;-70
2023/05/01 04:03:38;;;;;;;10.65;5.28;;;;;;;3.72;100.00;100909.09;4984320;28;20629;-70
2023/05/01 04:06:05;;;;;;;10.35;5.03;;;;;;;3.74;100.00;100892.19;4984282;28;20141;-70
2023/05/01 04:08:30;;;;;;;10.38;4.72;;;;;;;3.73;100.00;100884.38;4985272;28;20022;-70
2023/05/01 04:10:56;;;;;;;10.35;4.32;;;;;;;3.79;100.00;100890.06;4989372;28;20503;-73
2023/05/01 04:13:21;;;;;;;10.90;5.10;;;;;;;3.81;100.00;100885.47;5000201;28;20033;-69
2023/05/01 04:15:46;;;;;;;12.23;4.47;;;;;;;3.91;100.00;100875.09;4990335;28;20395;-71
2023/05/01 04:18:12;;;;;;;8.83;4.30;;;;;;;3.93;100.00;100861.75;5000119;28;20510;-72
2023/05/01 04:20:39;;;;;;;17.00;4.93;;;;;;;4.00;100.00;100847.97;5000336;28;20434;-73
2023/05/01 04:23:05;;;;;;;10.60;5.40;;;;;;;4.10;100.00;100834.88;4984348;28;20038;-71
2023/05/01 04:25:30;;;;;;;7.00;4.20;;;;;;;4.13;100.00;100805.56;4984069;28;20022;-72
2023/05/01 04:28:01;;;;;;;9.48;4.75;;;;;;;4.23;100.00;100805.69;4983585;28;20293;-71
2023/05/01 04:30:29;;;;;;;11.13;4.30;;;;;;;4.32;100.00;100794.41;4999956;28;20618;-73
2023/05/01 04:32:54;;;;;;;7.70;3.85;;;;;;;4.51;100.00;100791.13;4983779;28;20026;-71
2023/05/01 04:35:20;;;;;;;7.93;3.47;;;;;;;4.61;100.00;100756.84;4999906;28;20077;-70
2023/05/01 04:37:46;;;;;;;7.77;3.93;;;;;;;4.77;100.00;100719.44;4990594;28;20507;-69
2023/05/01 04:40:11;;;;;;;8.73;4.35;;;;;;;4.82;100.00;100682.84;4999901;28;20030;-70
2023/05/01 04:42:37;;;;;;;12.30;4.65;;;;;;;4.82;100.00;100640.53;4983734;28;20430;-72
2023/05/01 04:45:03;;;;;;;8.45;4.35;;;;;;;4.97;100.00;100630.50;4984435;28;20030;-72
2023/05/01 04:47:32;;;;;;;8.30;3.83;;;;;;;5.11;100.00;100594.94;5001306;28;20038;-69
2023/05/01 04:49:57;;;;;;;8.63;3.83;;;;;;;5.10;100.00;100535.00;5000972;28;20037;-69
2023/05/01 04:52:23;;;;;;;5.23;3.30;;;;;;;5.21;100.00;100533.13;5001020;28;20042;-73
2023/05/01 04:54:56;;;;;;;11.88;4.65;;;;;;;5.38;100.00;100514.94;5000835;28;20503;-70
2023/05/01 04:57:23;;;;;;;5.72;3.50;;;;;;;5.60;100.00;100511.25;5000722;28;20033;-73
2023/05/01 04:59:48;;;;;;;6.82;3.95;;;;;;;5.70;100.00;100436.09;4997392;28;20035;-74
2023/05/01 05:02:13;;;;;;;6.87;3.77;;;;;;;5.89;100.00;100400.81;4999550;28;20034;-72
2023/05/01 05:04:39;;;;;;;6.77;3.67;;;;;;;5.99;100.00;100331.09;4983423;28;20479;-69
2023/05/01 05:07:04;;;;;;;6.93;3.20;;;;;;;6.30;100.00;100329.91;4983287;28;20022;-71
2023/05/01 05:09:49;;;;;;;6.85;3.45;;;;;;;6.68;100.00;100243.19;4981900;28;20373;-70
2023/05/01 05:12:15;;;;;;;7.83;3.37;;;;;;;6.84;100.00;100138.22;4999760;28;20176;-69
2023/05/01 05:14:41;;;;;;;6.28;3.42;;;;;;;7.10;100.00;100014.31;4983453;28;20034;-68
2023/05/01 05:17:07;;;;;;;;;;;;;;;6.96;100.00;99932.63;4983992;28;20070;-69
2023/05/01 05:19:32;;;;;;;7.47;3.95;;;;;;;6.90;100.00;99965.91;4999685;28;19956;-70
2023/05/01 05:22:01;;;;;;;7.30;3.20;;;;;;;7.38;100.00;100060.09;4988272;28;20030;-76
2023/05/01 05:24:26;;;;;;;11.73;3.70;;;;;;;7.72;100.00;99966.22;4999456;28;20137;-73
2023/05/01 05:26:51;;;;;;;10.53;3.43;;;;;;;7.44;100.00;99814.28;4983460;28;20129;-69
2023/05/01 05:29:17;;;;;;;7.07;3.50;;;;;;;7.68;100.00;99857.78;4999554;28;20518;-68
2023/05/01 05:31:42;;;;;;;6.17;3.40;;;;;;;7.77;100.00;99785.91;4999862;28;20451;-72
2023/05/01 05:34:07;;;;;;;5.47;2.70;;;;;;;7.68;100.00;99693.06;4999468;28;20037;-71
2023/05/01 05:36:34;;;;;;;10.67;3.43;;;;;;;7.91;100.00;99840.16;4986308;28;20129;-76
2023/05/01 05:38:59;;;;;;;10.23;3.58;;;;;;;8.75;100.00;99851.31;4986142;28;20042;-69
2023/05/01 05:41:25;;;;;;;9.13;3.73;;;;;;;8.72;100.00;99691.19;5004966;28;20050;-72
2023/05/01 05:43:55;;;;;;;5.55;3.00;;;;;;;8.62;97.34;99475.91;5002958;28;20038;-70
2023/05/01 05:46:20;;;;;;;7.43;3.80;;;;;;;9.06;96.83;99587.78;5003075;28;20015;-69
2023/05/01 05:48:46;;;;;;;9.93;3.07;;;;;;;8.67;94.64;99364.44;4995845;28;20033;-69
2023/05/01 05:51:11;;;;;;;10.70;4.13;;;;;;;8.96;95.25;99554.41;4987427;28;20511;-69
2023/05/01 05:53:37;;;;;;;7.03;3.10;;;;;;;9.42;94.13;99603.03;4987598;28;20031;-69
2023/05/01 05:56:03;;;;;;;8.88;3.17;;;;;;;9.45;92.74;99468.66;4987534;28;20875;-72
2023/05/01 05:58:29;;;;;;;5.97;2.97;;;;;;;9.72;91.87;99529.25;5002517;28;20026;-71
2023/05/01 06:00:55;;;;;;;7.93;3.10;;;;;;;9.53;91.19;99428.59;4986319;28;20557;-69
2023/05/01 06:03:21;;;;;;;9.53;3.17;;;;;;;9.92;89.57;99408.69;5003062;28;20698;-70
2023/05/01 06:05:47;;;;;;;8.93;3.70;;;;;;;9.89;88.23;99329.09;4986636;28;20026;-72
2023/05/01 06:08:13;;;;;;;8.05;3.70;;;;;;;10.09;88.48;99428.75;5002815;28;20831;-73
2023/05/01 06:10:40;;;;;;;7.68;3.42;;;;;;;10.08;86.52;99276.94;4986572;28;20041;-74
2023/05/01 06:13:09;;;;;;;7.95;3.30;;;;;;;10.44;85.43;99298.13;5002892;28;20137;-70
2023/05/01 06:15:36;;;;;;;9.07;3.92;;;;;;;10.32;84.57;99208.97;4989595;28;20327;-73
2023/05/01 06:18:03;;;;;;;9.00;3.55;;;;;;;10.33;85.45;99378.69;4986480;28;20034;-75
2023/05/01 06:20:29;;;;;;;6.88;3.20;;;;;;;9.79;84.13;99084.22;5002745;28;20050;-70
2023/05/01 06:22:55;;;;;;;4.70;3.25;;;;;;;10.29;84.25;99281.41;4987747;28;20139;-70
2023/05/01 06:25:26;;;;;;;4.70;2.63;;;;;;;10.72;84.35;99449.34;5002286;28;20023;-71
2023/05/01 06:27:51;;;;;;;8.90;3.73;;;;;;;10.95;82.77;99331.59;4986833;28;20446;-69
2023/05/01 06:30:20;;;;;;;4.63;2.90;;;;;;;10.63;81.71;99178.28;5007683;28;20032;-69
2023/05/01 06:32:46;;;;;;;11.60;3.85;;;;;;;10.00;82.77;99183.78;4989290;28;20117;-76
2023/05/01 06:35:14;;;;;;;10.68;3.70;;;;;;;10.10;83.31;99309.56;5002603;28;20081;-75
2023/05/01 06:37:39;;;;;;;6.88;3.88;;;;;;;9.87;83.77;99323.13;4987807;28;20031;-69
2023/05/01 06:40:07;;;;;;;9.35;3.53;;;;;;;10.10;82.52;99227.72;5001946;28;20034;-69
2023/05/01 06:42:32;;;;;;;6.40;3.55;;;;;;;10.13;82.14;99240.66;4986504;28;20029;-69
2023/05/01 06:45:00;;;;;;;7.60;3.20;;;;;;;11.23;81.16;99445.56;5002341;28;20053;-69
2023/05/01 06:47:26;;;;;;;;;;;;;;;11.83;79.57;99404.63;4993323;28;20045;-69
2023/05/01 06:49:52;;;;;;;;;;;;;;;12.25;77.43;99239.41;5004618;28;20023;-69
2023/05/01 06:52:17;;;;;;;6.07;2.70;;;;;;;11.75;75.89;98936.09;5002532;28;20104;-72
2023/05/01 06:54:42;;;;;;;9.07;3.10;;;;;;;10.95;76.81;98928.41;5002149;28;20051;-71
2023/05/01 06:57:08;;;;;;;7.47;3.20;;;;;;;11.08;76.42;98962.28;5002419;28;20046;-74
2023/05/01 06:59:33;;;;;;;5.67;3.03;;;;;;;11.16;76.34;98956.72;5002229;28;20026;-73
2023/05/01 07:01:58;;;;;;;9.60;3.47;;;;;;;11.20;77.67;99179.66;5002407;28;20448;-71
2023/05/01 07:04:24;;;;;;;10.43;3.50;;;;;;;11.43;76.67;99130.31;4987078;28;20471;-70
2023/05/01 07:06:49;;;;;;;9.80;3.40;;;;;;;12.07;75.23;99126.88;4987049;28;20108;-69
2023/05/01 07:09:14;;;;;;;5.97;3.17;;;;;;;12.02;75.63;99198.94;4987116;28;20034;-70
2023/05/01 07:11:41;;;;;;;6.73;2.87;;;;;;;12.80;74.19;99225.59;4985566;28;20060;-70
2023/05/01 07:14:07;;;;;;;7.43;2.83;;;;;;;13.10;74.10;99306.22;5001209;28;20042;-71
2023/05/01 07:16:32;;;;;;;8.38;3.70;;;;;;;12.57;70.80;98722.88;4986627;28;20037;-71
2023/05/01 07:18:58;;;;;;;6.47;3.40;;;;;;;13.12;71.98;99090.84;5001269;28;20034;-70
2023/05/01 07:21:23;;;;;;;7.03;3.13;;;;;;;12.70;70.67;98779.97;4986330;28;20084;-70
2023/05/01 07:23:49;;;;;;;7.10;3.05;;;;;;;12.92;71.99;99094.47;4986066;28;20645;-70
2023/05/01 07:26:14;;;;;;;5.03;2.83;;;;;;;13.29;71.17;99108.84;5001565;28;20487;-71
2023/05/01 07:28:40;;;;;;;12.97;3.63;;;;;;;13.04;68.11;98607.88;5001504;28;20095;-70
2023/05/01 07:31:08;;;;;;;7.75;3.72;;;;;;;13.07;68.59;98692.31;5001314;28;20807;-70
2023/05/01 07:33:34;;;;;;;5.53;2.78;;;;;;;13.67;67.78;98858.47;4986138;28;20184;-71
2023/05/01 07:35:59;;;;;;;10.67;3.20;;;;;;;12.84;66.82;98478.84;4986000;28;20563;-71
2023/05/01 07:38:25;;;;;;;9.00;2.83;;;;;;;12.86;67.23;98691.78;4986275;28;20471;-71
2023/05/01 07:40:53;;;;;;;7.03;2.35;;;;;;;12.73;67.83;98721.41;5001106;28;20105;-70
2023/05/01 07:43:19;;;;;;;7.63;3.67;;;;;;;12.54;66.81;98535.13;4985978;28;20033;-71
2023/05/01 07:45:54;;;;;;;8.23;3.43;;;;;;;13.22;67.20;98887.50;4991636;28;20026;-70
2023/05/01 07:48:20;;;;;;;12.75;3.22;;;;;;;12.89;66.52;98620.88;5000501;28;20034;-70
2023/05/01 07:50:45;;;;;;;9.50;3.90;;;;;;;13.23;66.43;98739.09;4986081;28;20026;-70
2023/05/01 07:53:11;;;;;;;11.37;4.43;;;;;;;12.63;66.30;98558.66;5001180;28;20037;-71
2023/05/01 07:55:37;;;;;;;6.03;3.30;;;;;;;13.18;66.58;98816.63;4985936;28;20039;-70
2023/05/01 07:58:02;;;;;;;7.55;3.13;;;;;;;12.38;66.68;98561.47;5000132;28;20034;-70
2023/05/01 08:00:28;;;;;;;14.17;2.67;;;;;;;12.97;66.09;98735.75;4985679;28;20030;-70
2023/05/01 08:02:53;;;;;;;6.30;3.00;;;;;;;12.36;66.14;98528.81;4985619;28;20034;-70
2023/05/01 08:05:19;;;;;;;10.33;3.53;;;;;;;12.64;66.42;98737.00;4985468;28;20065;-70
2023/05/01 08:07:44;;;;;;;9.53;3.47;;;;;;;13.12;66.31;98882.66;4974982;28;20050;-70
2023/05/01 08:10:09;;;;;;;8.30;3.40;;;;;;;12.87;65.64;98673.84;5000209;28;20115;-70
2023/05/01 08:12:35;;;;;;;9.57;3.23;;;;;;;12.77;65.28;98585.22;4999676;28;20273;-71
2023/05/01 08:15:00;;;;;;;8.00;3.40;;;;;;;12.83;65.88;98723.53;4999963;28;20026;-71
2023/05/01 08:17:25;;;;;;;8.53;3.03;;;;;;;13.14;64.81;98697.59;4985071;28;20034;-71
2023/05/01 08:19:55;;;;;;;10.47;3.50;;;;;;;13.22;64.67;98705.28;4984971;28;20480;-71
2023/05/01 08:22:20;;;;;;;5.93;3.20;;;;;;;13.08;64.99;98713.50;4985396;28;20095;-71
2023/05/01 08:24:46;;;;;;;9.13;3.35;;;;;;;14.14;64.44;99008.00;4985166;28;20463;-70
2023/05/01 08:27:11;;;;;;;10.57;3.27;;;;;;;14.83;63.73;99125.84;4985259;28;20030;-71
2023/05/01 08:29:36;;;;;;;7.30;3.20;;;;;;;14.79;61.22;98620.44;5000006;28;20571;-71
2023/05/01 08:32:02;;;;;;;7.47;3.20;;;;;;;14.79;60.04;98461.97;4984958;28;20680;-71
2023/05/01 08:34:27;;;;;;;11.00;3.30;;;;;;;14.52;60.01;98437.63;4984956;28;20089;-70
2023/05/01 08:36:53;;;;;;;8.53;3.07;;;;;;;14.74;59.89;98548.66;4985163;28;20518;-70
2023/05/01 08:39:18;;;;;;;6.97;2.87;;;;;;;14.75;58.98;98338.13;4984852;28;20443;-70
2023/05/01 08:41:46;;;;;;;6.07;3.33;;;;;;;14.87;59.36;98479.56;5000106;28;20026;-71
2023/05/01 08:44:13;;;;;;;9.05;3.08;;;;;;;14.52;58.21;98204.06;4983555;28;20034;-71
2023/05/01 08:46:44;;;;;;;5.88;3.10;;;;;;;14.76;58.29;98334.34;4984830;28;20026;-70
2023/05/01 08:49:13;;;;;;;9.80;2.85;;;;;;;14.82;58.36;98355.91;4996493;28;20048;-71
2023/05/01 08:51:41;;;;;;;10.20;2.92;;;;;;;14.58;58.05;98264.81;4999651;28;20117;-70
2023/05/01 08:54:08;;;;;;;4.95;2.30;;;;;;;14.81;56.78;98163.59;4984471;28;20030;-71
2023/05/01 08:56:35;;;;;;;9.90;3.13;;;;;;;14.12;55.79;97717.69;4983830;28;20038;-70
2023/05/01 08:59:03;;;;;;;7.65;3.00;;;;;;;14.43;56.70;98098.19;4984678;28;20030;-71
2023/05/01 09:01:32;;;;;;;10.70;3.80;;;;;;;14.66;55.26;97947.53;4984740;28;20521;-71
2023/05/01 09:04:00;;;;;;;7.85;3.08;;;;;;;13.91;55.38;97640.84;4984520;28;20034;-69
2023/05/01 09:06:28;;;;;;;8.48;3.30;;;;;;;14.04;56.40;98032.00;5003318;28;20446;-71
2023/05/01 09:08:53;;;;;;;5.13;2.38;;;;;;;14.50;56.64;98249.13;4984875;28;20049;-71
2023/05/01 09:11:21;;;;;;;6.60;2.80;;;;;;;15.62;55.88;98516.63;5003568;28;20042;-70
2023/05/01 09:13:47;;;;;;;9.85;3.20;;;;;;;15.05;54.73;98061.97;5003293;28;20286;-71
2023/05/01 09:16:12;;;;;;;4.57;2.40;;;;;;;15.04;55.17;98208.16;4988539;28;20114;-72
2023/05/01 09:18:39;;;;;;;10.07;2.83;;;;;;;15.08;54.39;98024.69;4986931;28;20100;-70
2023/05/01 09:21:05;;;;;;;8.93;2.60;;;;;;;16.22;54.49;98450.31;4988259;28;20317;-71
2023/05/01 09:23:31;;;;;;;9.35;3.13;;;;;;;16.14;53.32;98164.66;4987986;28;20034;-71
2023/05/01 09:25:57;;;;;;;8.27;2.88;;;;;;;16.75;52.20;98307.66;4988172;28;20045;-71
2023/05/01 09:28:43;;;;;;;9.57;2.80;;;;;;;16.74;50.91;97985.47;4988196;28;20106;-71
2023/05/01 09:31:28;;;;;;;5.40;2.50;;;;;;;17.07;52.45;98406.50;4988625;28;20392;-71
2023/05/01 09:33:59;;;;;;;7.82;2.95;;;;;;;17.30;50.71;98203.00;4986561;28;20026;-71
2023/05/01 09:36:27;;;;;;;3.78;2.38;;;;;;;17.37;49.50;98008.56;4988387;28;20042;-71
2023/05/01 09:38:52;;;;;;;5.85;2.80;;;;;;;17.24;50.62;98174.44;5003548;28;20058;-71
2023/05/01 09:41:19;;;;;;;4.13;2.60;;;;;;;16.91;51.26;98129.91;5003820;28;20117;-70
2023/05/01 09:43:56;;;;;;;5.43;2.20;;;;;;;16.77;49.81;97803.59;4977829;28;20026;-71
2023/05/01 09:46:23;;;;;;;4.72;2.33;;;;;;;17.51;48.96;98001.50;4988376;28;20109;-71
2023/05/01 09:48:59;;;;;;;8.80;2.28;;;;;;;16.79;47.93;97575.97;4992883;28;20120;-71
2023/05/01 09:51:27;;;;;;;13.77;2.90;;;;;;;17.77;47.51;97921.31;4988250;28;20034;-71
2023/05/01 09:54:03;;;;;;;7.15;2.58;;;;;;;16.79;46.75;97347.00;4987769;28;20038;-70
2023/05/01 09:56:31;;;;;;;8.68;2.88;;;;;;;17.13;47.10;97668.72;4987907;28;20034;-71
2023/05/01 09:59:14;;;;;;;7.30;2.20;;;;;;;17.14;46.09;97528.28;5002696;28;20153;-71
2023/05/01 10:01:45;;;;;;;6.13;2.55;;;;;;;16.68;47.74;97633.66;4987549;28;20045;-71
2023/05/01 10:04:11;;;;;;;6.55;2.42;;;;;;;17.17;46.30;97610.47;4985208;28;20121;-70
2023/05/01 10:06:37;;;;;;;;;;;;;;;16.11;47.57;97368.56;5003378;28;20070;-71
2023/05/01 10:09:03;;;;;;;;;;;;;;;16.78;46.77;97632.78;4987827;28;20019;-70
2023/05/01 10:11:28;;;;;;;7.35;2.33;;;;;;;17.44;45.52;97615.34;4987723;28;19913;-70
2023/05/01 10:14:10;;;;;;;6.68;2.22;;;;;;;17.08;44.65;97308.41;4987169;28;20031;-71
2023/05/01 10:16:37;;;;;;;3.35;2.22;;;;;;;17.28;44.47;97351.28;5001801;28;20045;-71
2023/05/01 10:19:03;;;;;;;5.05;2.35;;;;;;;17.08;44.05;97204.09;4990542;28;20096;-72
2023/05/01 10:21:29;;;;;;;;;;;;;;;17.01;43.96;97089.69;5002441;28;20048;-71
2023/05/01 10:23:54;;;;;;;;;;;;;;;17.52;44.52;97501.47;5002777;28;19909;-71
2023/05/01 10:26:20;;;;;;;9.95;2.58;;;;;;;17.57;44.93;97603.13;4987612;28;19913;-71
2023/05/01 10:28:48;;;;;;;7.53;2.90;;;;;;;17.90;43.81;97498.91;4987287;28;20140;-71
2023/05/01 10:31:14;;;;;;;7.35;2.60;;;;;;;17.55;44.09;97467.72;4987620;28;20472;-71
2023/05/01 10:33:42;;;;;;;6.50;2.65;;;;;;;18.86;44.53;98141.91;5002442;28;20096;-71
2023/05/01 10:36:11;;;;;;;8.50;2.65;;;;;;;18.65;42.70;97610.78;4999429;28;20026;-71
2023/05/01 10:38:37;;;;;;;4.28;2.50;;;;;;;18.30;41.76;97161.94;4985988;28;20042;-71
2023/05/01 10:41:02;;;;;;;7.22;2.55;;;;;;;18.85;41.96;97424.06;4987088;28;20671;-70
2023/05/01 10:43:29;;;;;;;7.93;2.93;;;;;;;18.58;40.72;97075.47;4987049;28;20026;-71
2023/05/01 10:46:19;;;;;;;7.47;3.60;;;;;;;17.90;40.52;96697.50;4991132;28;20335;-71
2023/05/01 10:48:45;;;;;;;7.20;3.10;;;;;;;18.89;40.54;97232.34;4999226;28;20043;-71
2023/05/01 10:51:19;;;;;;;8.40;4.80;;;;;;;18.95;40.70;97312.25;5002366;28;20402;-72
2023/05/01 10:53:46;;;;;;;5.50;2.50;;;;;;;18.60;40.73;97155.09;4983693;28;20038;-71
2023/05/01 10:56:31;;;;;;;6.18;2.78;;;;;;;19.72;40.70;97655.16;5002050;28;20026;-71
2023/05/01 10:58:58;;;;;;;7.57;2.13;;;;;;;18.78;39.72;96950.78;4979242;28;20658;-72
2023/05/01 11:01:38;;;;;;;6.50;2.60;;;;;;;19.81;39.39;97377.28;5002231;28;20435;-72
2023/05/01 11:04:26;;;;;;;6.97;2.50;;;;;;;20.54;39.19;97655.50;4986420;28;20038;-72
2023/05/01 11:07:04;;;;;;;6.13;2.30;;;;;;;20.43;37.14;97020.94;4997976;28;20089;-72
2023/05/01 11:09:38;;;;;;;4.40;2.45;;;;;;;21.43;36.08;97231.59;4986319;28;20117;-71
2023/05/01 11:12:05;;;;;;;4.30;2.15;;;;;;;20.43;35.67;96582.09;4986341;28;20038;-72
2023/05/01 11:14:52;;;;;;;5.30;2.40;;;;;;;20.41;36.73;96902.06;4984374;28;20037;-71
2023/05/01 11:17:42;;;;;;;7.55;2.10;;;;;;;18.90;36.76;96291.66;4985236;28;20379;-71
2023/05/01 11:20:12;;;;;;;3.60;2.22;;;;;;;18.59;37.44;96388.31;4998356;28;20032;-72
2023/05/01 11:22:39;;;;;;;6.57;2.83;;;;;;;17.83;38.60;96284.41;4984896;28;20474;-72
2023/05/01 11:25:31;;;;;;;4.05;2.55;;;;;;;19.49;39.09;97309.78;4985836;28;20113;-71
2023/05/01 11:28:00;;;;;;;3.05;2.13;;;;;;;19.54;38.46;97152.75;4984623;28;20034;-71
2023/05/01 11:30:34;;;;;;;6.32;2.65;;;;;;;18.90;37.49;96569.19;4985798;28;20435;-72
2023/05/01 11:33:00;;;;;;;5.85;2.70;;;;;;;18.32;38.92;96752.03;4984713;28;20046;-72
2023/05/01 11:35:27;;;;;;;5.07;2.28;;;;;;;17.60;39.40;96556.09;5001107;28;20038;-70